Strona główna
METAR-TAF:

METAR-TAF

Lotnisko :

Wick, Szkocja

Szerokość geograficzna: 58-27N, Długość geograficzna: 003-05W, wysokość: 39 m

Aktualna obserwacja pogody

Raport powstał 27 minut temu, godzina 05:50 UTC
Wiatr 3 kt od południe
Temperatura 12°C
Wilgotność 88%
Ciśnienie 1026 hPa
Widzialność 10 km lub więcej

METAR: EGPC 010550Z AUTO 18003KT 9999 NCD 12/10 Q1026

czas: 07:17 (06:17 UTC)

Prognoza

Raport powstał 4 godziny i 22 minut temu, godzina 01:55 UTC
Prognoza ważna od 01 godzina 03 UTC do 01 godzina 12 UTC
Wiatr 9 kt od południe
Widzialność 10 km lub więcej
Brak chmur poniżej 1500 m i brak chmur cumulonimbus
Prawdopodobieństwo 30%
od 01 godzina 03 UTC do 01 godzina 08 UTC
Widzialność: 0300 m
mgła

TAF: EGPC 010155Z 0103/0112 17009KT CAVOK PROB30 0103/0108 0300 FG VV///

Obserwacja i prognoza pogody dla ponad 4000 lotnisk (raport METAR i TAF).

Dostępne stacje oznaczono żółtymi i czerwonymi punktami na mapie.

Najedź kursorem aby zobaczyć nazwę stacji.

Kliknij aby zobaczyć obserwacje i prognozy pogody.

Aby zmienić mapę: kliknij na zielony przycisk z czarnym krzyżykiem, aby powiększyć; na zielony przycisk z myślnikiem, aby pomniejszyć; na zielone strzałki, aby przejść do map sąsiednich.


METAR-TAF: